createdAt,value
2023-03-26T00:00:12.714Z,0.50
2023-03-26T00:03:16.978Z,0.50
2023-03-26T00:06:22.857Z,0.45
2023-03-26T00:09:25.189Z,0.40
2023-03-26T00:12:27.819Z,0.60
2023-03-26T00:15:30.925Z,0.50
2023-03-26T00:18:34.947Z,0.50
2023-03-26T00:21:37.446Z,0.40
2023-03-26T00:24:40.661Z,0.43
2023-03-26T00:27:45.512Z,0.50
2023-03-26T00:30:49.730Z,0.40
2023-03-26T00:33:56.353Z,0.40
2023-03-26T00:37:02.480Z,0.47
2023-03-26T00:40:07.593Z,0.43
2023-03-26T00:43:18.888Z,0.63
2023-03-26T00:46:22.306Z,0.43
2023-03-26T00:49:26.678Z,0.60
2023-03-26T00:52:29.744Z,0.45
2023-03-26T00:55:32.376Z,0.55
2023-03-26T00:58:35.215Z,0.47
2023-03-26T01:01:37.933Z,0.40
2023-03-26T01:04:40.669Z,0.50
2023-03-26T01:07:44.712Z,0.30
2023-03-26T01:10:50.964Z,0.50
2023-03-26T01:14:18.445Z,0.63
2023-03-26T01:17:22.012Z,0.50
2023-03-26T01:20:30.536Z,0.45
2023-03-26T01:23:37.937Z,0.40
2023-03-26T01:26:58.998Z,0.35
2023-03-26T01:30:13.395Z,0.60
2023-03-26T01:33:43.892Z,0.50
2023-03-26T01:37:30.538Z,0.68
2023-03-26T01:41:19.252Z,0.62
2023-03-26T01:44:29.250Z,0.30
2023-03-26T01:47:32.573Z,0.80
2023-03-26T01:50:34.926Z,0.40
2023-03-26T01:53:43.554Z,0.93
2023-03-26T01:56:57.726Z,0.30
2023-03-26T02:00:23.295Z,0.28
2023-03-26T02:03:31.825Z,0.50
2023-03-26T02:06:44.576Z,0.40
2023-03-26T02:09:52.694Z,0.43
2023-03-26T02:12:56.007Z,0.30
2023-03-26T02:16:01.686Z,0.40
2023-03-26T02:19:04.576Z,0.50
2023-03-26T02:22:11.036Z,0.70
2023-03-26T02:25:16.536Z,0.47
2023-03-26T02:28:20.008Z,0.50
2023-03-26T02:31:26.478Z,0.50
2023-03-26T02:34:29.427Z,0.40
2023-03-26T02:37:33.909Z,0.40
2023-03-26T02:40:38.457Z,0.60
2023-03-26T02:43:40.917Z,0.60
2023-03-26T02:46:44.624Z,0.40
2023-03-26T02:49:47.757Z,0.60
2023-03-26T02:52:50.699Z,0.60
2023-03-26T02:55:53.502Z,0.47
2023-03-26T02:58:56.701Z,0.40
2023-03-26T03:01:59.152Z,0.70
2023-03-26T03:05:08.452Z,0.60
2023-03-26T03:08:11.215Z,0.70
2023-03-26T03:11:22.245Z,0.60
2023-03-26T03:14:24.709Z,0.45
2023-03-26T03:17:27.606Z,0.50
2023-03-26T03:20:35.284Z,0.50
2023-03-26T03:23:38.216Z,0.40
2023-03-26T03:26:42.477Z,0.50
2023-03-26T03:29:46.323Z,0.60
2023-03-26T03:32:49.607Z,0.70
2023-03-26T03:35:52.959Z,0.50
2023-03-26T03:38:55.591Z,0.60
2023-03-26T03:41:58.851Z,0.52
2023-03-26T03:45:02.112Z,0.60
2023-03-26T03:48:07.733Z,0.60
2023-03-26T03:51:11.170Z,0.63
2023-03-26T03:54:14.935Z,0.55
2023-03-26T03:57:18.830Z,0.40
2023-03-26T04:00:22.735Z,0.60
2023-03-26T04:03:33.490Z,0.45
2023-03-26T04:06:37.761Z,0.40
2023-03-26T04:09:41.099Z,0.50
2023-03-26T04:12:44.947Z,0.80
2023-03-26T04:15:47.976Z,0.57
2023-03-26T04:18:50.260Z,0.80
2023-03-26T04:21:54.398Z,0.50
2023-03-26T04:24:57.054Z,0.50
2023-03-26T04:28:06.540Z,0.50
2023-03-26T04:31:15.760Z,0.70
2023-03-26T04:34:26.371Z,0.40
2023-03-26T04:37:36.304Z,0.43
2023-03-26T04:40:40.398Z,0.60
2023-03-26T04:43:47.335Z,0.88
2023-03-26T04:46:53.045Z,0.75
2023-03-26T04:49:56.120Z,0.90
2023-03-26T04:52:59.095Z,0.70
2023-03-26T04:56:32.265Z,0.65
2023-03-26T04:59:41.420Z,0.62
2023-03-26T05:02:45.904Z,0.50
2023-03-26T05:05:49.754Z,0.62
2023-03-26T05:08:52.113Z,0.80
2023-03-26T05:11:57.458Z,0.70
2023-03-26T05:15:00.380Z,0.77
2023-03-26T05:18:03.738Z,0.70
2023-03-26T05:21:06.738Z,0.65
2023-03-26T05:24:09.537Z,0.70
2023-03-26T05:27:17.070Z,1.00
2023-03-26T05:30:21.441Z,0.57
2023-03-26T05:33:24.446Z,0.50
2023-03-26T05:36:28.595Z,0.60
2023-03-26T05:39:33.783Z,0.80
2023-03-26T05:42:39.310Z,0.90
2023-03-26T05:45:42.243Z,0.80
2023-03-26T05:48:45.807Z,0.80
2023-03-26T05:51:48.269Z,0.60
2023-03-26T05:54:51.373Z,0.60
2023-03-26T05:57:56.108Z,0.75
2023-03-26T06:01:09.851Z,0.60
2023-03-26T06:04:16.250Z,0.70
2023-03-26T06:07:19.947Z,0.60
2023-03-26T06:10:24.206Z,0.60
2023-03-26T06:13:26.644Z,0.82
2023-03-26T06:16:29.404Z,0.52
2023-03-26T06:19:31.928Z,1.00
2023-03-26T06:22:34.623Z,0.80
2023-03-26T06:25:38.558Z,0.60
2023-03-26T06:28:41.738Z,0.50
2023-03-26T06:31:45.516Z,0.70
2023-03-26T06:34:48.834Z,0.70
2023-03-26T06:37:51.384Z,0.73
2023-03-26T06:40:54.170Z,0.60
2023-03-26T06:43:56.944Z,0.85
2023-03-26T06:47:00.218Z,0.95
2023-03-26T06:50:05.668Z,1.17
2023-03-26T06:53:11.327Z,0.90
2023-03-26T06:56:15.230Z,0.73
2023-03-26T06:59:18.163Z,0.80
2023-03-26T07:02:27.328Z,0.80
2023-03-26T07:05:41.633Z,0.60
2023-03-26T07:08:44.819Z,0.40
2023-03-26T07:11:49.009Z,0.90
2023-03-26T07:14:53.216Z,0.80
2023-03-26T07:17:57.058Z,0.80
2023-03-26T07:20:59.958Z,0.90
2023-03-26T07:24:05.345Z,1.27
2023-03-26T07:27:31.742Z,0.90
2023-03-26T07:30:59.684Z,0.70
2023-03-26T07:34:25.287Z,1.02
2023-03-26T07:37:49.392Z,0.90
2023-03-26T07:41:12.137Z,0.95
2023-03-26T07:44:35.748Z,1.10
2023-03-26T07:47:42.436Z,0.75
2023-03-26T07:50:48.377Z,0.82
2023-03-26T07:53:53.286Z,0.90
2023-03-26T07:57:02.173Z,0.73
2023-03-26T08:00:22.115Z,1.23
2023-03-26T08:03:50.936Z,2.33
2023-03-26T08:07:08.123Z,1.40
2023-03-26T08:10:48.632Z,0.90
2023-03-26T08:14:00.829Z,1.20
2023-03-26T08:17:13.888Z,1.00
2023-03-26T08:20:34.472Z,1.15
2023-03-26T08:23:50.813Z,1.15
2023-03-26T08:27:13.722Z,1.10
2023-03-26T08:30:22.596Z,0.80
2023-03-26T08:33:27.480Z,0.87
2023-03-26T08:36:30.244Z,0.90
2023-03-26T08:39:32.530Z,1.25
2023-03-26T08:42:37.951Z,1.25
2023-03-26T08:46:14.190Z,1.40
2023-03-26T08:49:17.065Z,1.20
2023-03-26T08:52:34.300Z,1.20
2023-03-26T08:55:56.665Z,1.15
2023-03-26T08:59:25.815Z,1.10
2023-03-26T09:03:06.694Z,1.05
2023-03-26T09:06:17.495Z,1.00
2023-03-26T09:09:48.806Z,1.55
2023-03-26T09:13:24.985Z,1.45
2023-03-26T09:17:10.738Z,1.00
2023-03-26T09:20:34.591Z,1.20
2023-03-26T09:23:43.372Z,1.23
2023-03-26T09:27:07.513Z,1.20
2023-03-26T09:30:36.712Z,1.10
2023-03-26T09:34:05.742Z,1.48
2023-03-26T09:37:21.212Z,1.05
2023-03-26T09:40:52.946Z,1.13
2023-03-26T09:44:17.214Z,1.17
2023-03-26T09:47:52.725Z,1.00
2023-03-26T09:51:07.364Z,1.10
2023-03-26T09:54:39.460Z,0.93
2023-03-26T09:58:21.413Z,1.00
2023-03-26T10:01:33.322Z,0.95
2023-03-26T10:05:11.017Z,1.25
2023-03-26T10:08:39.276Z,0.85
2023-03-26T10:12:11.978Z,1.20
2023-03-26T10:15:17.121Z,1.10
2023-03-26T10:18:44.304Z,0.90
2023-03-26T10:22:16.669Z,1.65
2023-03-26T10:25:33.747Z,0.90
2023-03-26T10:29:00.182Z,1.30
2023-03-26T10:32:22.836Z,1.00
2023-03-26T10:35:43.895Z,1.33
2023-03-26T10:39:09.350Z,1.50
2023-03-26T10:42:37.077Z,0.93
2023-03-26T10:46:10.643Z,1.23
2023-03-26T10:49:22.203Z,1.27
2023-03-26T10:52:46.952Z,1.08
2023-03-26T10:55:57.936Z,1.12
2023-03-26T10:59:06.377Z,0.90
2023-03-26T11:02:37.362Z,1.00
2023-03-26T11:05:54.106Z,1.30
2023-03-26T11:09:15.357Z,1.80
2023-03-26T11:12:26.704Z,1.00
2023-03-26T11:15:33.247Z,1.00
2023-03-26T11:18:43.565Z,1.30
2023-03-26T11:22:13.654Z,1.07
2023-03-26T11:25:22.250Z,1.10
2023-03-26T11:29:32.813Z,1.15
2023-03-26T11:32:45.082Z,1.00
2023-03-26T11:35:51.149Z,1.05
2023-03-26T11:38:57.999Z,1.13
2023-03-26T11:42:08.175Z,1.60
2023-03-26T11:45:18.494Z,1.30
2023-03-26T11:48:33.193Z,1.40
2023-03-26T11:51:38.210Z,1.30
2023-03-26T11:54:40.655Z,1.10
2023-03-26T11:57:50.446Z,1.37
2023-03-26T12:00:54.854Z,1.00
2023-03-26T12:04:04.188Z,1.00
2023-03-26T12:07:12.741Z,1.05
2023-03-26T12:10:28.985Z,0.90
2023-03-26T12:13:39.588Z,1.00
2023-03-26T12:16:59.431Z,1.10
2023-03-26T12:20:22.592Z,0.85
2023-03-26T12:23:38.789Z,0.75
2023-03-26T12:26:45.037Z,0.87
2023-03-26T12:30:10.982Z,0.93
2023-03-26T12:33:26.149Z,0.77
2023-03-26T12:36:31.665Z,0.82
2023-03-26T12:40:10.817Z,1.60
2023-03-26T12:44:54.827Z,0.83
2023-03-26T12:48:00.516Z,0.90
2023-03-26T12:50:17.029Z,0.90
2023-03-26T12:53:41.716Z,1.00
2023-03-26T12:57:22.336Z,0.98
2023-03-26T13:00:31.692Z,1.27
2023-03-26T13:03:59.501Z,1.60
2023-03-26T13:07:15.305Z,0.85
2023-03-26T13:10:30.539Z,0.80
2023-03-26T13:14:14.313Z,0.70
2023-03-26T13:17:32.470Z,0.70
2023-03-26T13:20:53.940Z,0.90
2023-03-26T13:24:02.570Z,0.95
2023-03-26T13:27:16.801Z,1.05
2023-03-26T13:30:31.556Z,1.10
2023-03-26T13:33:44.969Z,1.20
2023-03-26T13:36:47.646Z,1.00
2023-03-26T13:39:56.915Z,0.70
2023-03-26T13:43:19.084Z,0.93
2023-03-26T13:46:27.120Z,1.12
2023-03-26T13:49:37.405Z,1.00
2023-03-26T13:52:46.391Z,0.80
2023-03-26T13:55:55.705Z,0.90
2023-03-26T13:59:03.472Z,0.85
2023-03-26T14:02:15.042Z,0.70
2023-03-26T14:05:24.844Z,1.27
2023-03-26T14:08:27.164Z,0.90
2023-03-26T14:11:46.740Z,1.05
2023-03-26T14:14:59.094Z,1.02
2023-03-26T14:18:06.170Z,1.02
2023-03-26T14:21:46.470Z,0.80
2023-03-26T14:25:13.871Z,0.60
2023-03-26T14:28:41.487Z,0.75
2023-03-26T14:32:09.023Z,0.98
2023-03-26T14:35:39.126Z,1.05
2023-03-26T14:38:57.551Z,0.80
2023-03-26T14:42:07.959Z,0.70
2023-03-26T14:45:48.691Z,0.60
2023-03-26T14:48:53.842Z,0.80
2023-03-26T14:52:18.336Z,0.73
2023-03-26T14:55:23.670Z,0.50
2023-03-26T14:58:54.224Z,0.70
2023-03-26T15:02:34.138Z,0.60
2023-03-26T15:06:04.097Z,0.60
2023-03-26T15:09:46.322Z,0.70
2023-03-26T15:13:12.584Z,0.97
2023-03-26T15:16:33.747Z,0.70
2023-03-26T15:19:57.717Z,1.08
2023-03-26T15:23:24.539Z,0.90
2023-03-26T15:26:49.718Z,0.62
2023-03-26T15:30:00.817Z,0.70
2023-03-26T15:33:10.237Z,0.68
2023-03-26T15:36:34.679Z,0.60
2023-03-26T15:40:19.155Z,0.70
2023-03-26T15:43:21.882Z,0.70
2023-03-26T15:46:33.411Z,1.00
2023-03-26T15:49:42.711Z,0.90
2023-03-26T15:53:29.666Z,0.90
2023-03-26T15:57:01.287Z,0.70
2023-03-26T16:00:22.495Z,0.77
2023-03-26T16:03:39.626Z,1.00
2023-03-26T16:06:54.862Z,0.80
2023-03-26T16:10:32.028Z,0.73
2023-03-26T16:13:34.473Z,0.90
2023-03-26T16:16:57.349Z,1.00
2023-03-26T16:20:46.676Z,0.80
2023-03-26T16:23:49.227Z,1.05
2023-03-26T16:26:51.515Z,1.27
2023-03-26T16:30:00.132Z,0.80
2023-03-26T16:33:19.170Z,0.90
2023-03-26T16:36:30.948Z,0.93
2023-03-26T16:39:44.290Z,0.93
2023-03-26T16:43:20.835Z,0.90
2023-03-26T16:46:52.670Z,1.17
2023-03-26T16:50:14.076Z,1.15
2023-03-26T16:53:58.809Z,1.20
2023-03-26T16:57:41.602Z,1.52
2023-03-26T17:00:59.853Z,1.60
2023-03-26T17:04:25.035Z,1.70
2023-03-26T17:07:38.971Z,1.45
2023-03-26T17:10:56.755Z,2.53
2023-03-26T17:14:11.153Z,2.25
2023-03-26T17:17:19.981Z,2.40
2023-03-26T17:20:33.516Z,2.45
2023-03-26T17:24:00.034Z,2.72
2023-03-26T17:27:41.783Z,2.03
2023-03-26T17:30:56.685Z,2.50
2023-03-26T17:34:39.212Z,2.80
2023-03-26T17:37:45.647Z,2.92
2023-03-26T17:40:54.813Z,2.97
2023-03-26T17:43:57.708Z,2.80
2023-03-26T17:47:00.833Z,3.03
2023-03-26T17:50:06.931Z,2.47
2023-03-26T17:53:21.151Z,2.87
2023-03-26T17:56:29.502Z,2.30
2023-03-26T17:59:32.786Z,2.67
2023-03-26T18:02:42.229Z,2.40
2023-03-26T18:05:46.357Z,2.42
2023-03-26T18:09:37.149Z,2.47
2023-03-26T18:12:57.618Z,2.50
2023-03-26T18:16:14.956Z,2.63
2023-03-26T18:19:21.991Z,2.30
2023-03-26T18:22:28.602Z,2.60
2023-03-26T18:25:33.979Z,2.55
2023-03-26T18:28:42.593Z,2.65
2023-03-26T18:31:48.221Z,2.80
2023-03-26T18:34:59.027Z,2.45
2023-03-26T18:38:03.517Z,2.72
2023-03-26T18:41:15.299Z,2.78
2023-03-26T18:44:19.626Z,2.72
2023-03-26T18:47:22.782Z,3.60
2023-03-26T18:50:36.891Z,2.87
2023-03-26T18:53:48.325Z,2.95
2023-03-26T18:56:52.307Z,2.72
2023-03-26T18:59:57.364Z,2.70
2023-03-26T19:03:08.184Z,2.10
2023-03-26T19:06:14.225Z,2.60
2023-03-26T19:09:31.006Z,2.78
2023-03-26T19:12:35.715Z,2.90
2023-03-26T19:15:38.557Z,3.67
2023-03-26T19:18:44.264Z,2.77
2023-03-26T19:21:48.463Z,2.72
2023-03-26T19:24:57.646Z,3.00
2023-03-26T19:28:00.314Z,3.28
2023-03-26T19:31:14.913Z,3.67
2023-03-26T19:34:31.653Z,3.83
2023-03-26T19:37:34.074Z,4.37
2023-03-26T19:40:36.820Z,4.30
2023-03-26T19:43:39.624Z,4.05
2023-03-26T19:46:53.383Z,3.60
2023-03-26T19:50:01.406Z,3.77
2023-03-26T19:53:29.850Z,3.53
2023-03-26T19:56:33.747Z,3.78
2023-03-26T19:59:36.419Z,3.67
2023-03-26T20:02:38.974Z,3.50
2023-03-26T20:05:41.729Z,3.60
2023-03-26T20:08:44.336Z,3.42
2023-03-26T20:11:47.078Z,4.07
2023-03-26T20:14:49.480Z,3.75
2023-03-26T20:17:55.724Z,4.07
2023-03-26T20:20:58.370Z,4.40
2023-03-26T20:24:01.701Z,3.90
2023-03-26T20:27:04.127Z,4.30
2023-03-26T20:30:08.113Z,3.83
2023-03-26T20:33:17.954Z,4.05
2023-03-26T20:36:32.999Z,3.87
2023-03-26T20:39:37.835Z,3.47
2023-03-26T20:42:41.645Z,4.20
2023-03-26T20:45:45.684Z,4.85
2023-03-26T20:48:48.673Z,4.45
2023-03-26T20:51:51.072Z,4.60
2023-03-26T20:54:53.759Z,3.83
2023-03-26T20:57:56.139Z,4.30
2023-03-26T21:01:01.272Z,4.50
2023-03-26T21:04:04.444Z,3.80
2023-03-26T21:07:17.689Z,4.03
2023-03-26T21:10:21.512Z,4.00
2023-03-26T21:13:37.288Z,3.47
2023-03-26T21:16:39.841Z,3.42
2023-03-26T21:19:43.700Z,3.22
2023-03-26T21:23:06.939Z,3.80
2023-03-26T21:26:26.504Z,3.90
2023-03-26T21:29:29.121Z,3.70
2023-03-26T21:32:32.394Z,3.50
2023-03-26T21:35:35.253Z,2.30
2023-03-26T21:38:38.704Z,1.33
2023-03-26T21:42:05.354Z,1.50
2023-03-26T21:45:09.278Z,1.65
2023-03-26T21:48:12.699Z,1.20
2023-03-26T21:51:19.261Z,1.20
2023-03-26T21:54:30.091Z,1.30
2023-03-26T21:58:12.246Z,0.90
2023-03-26T22:01:36.107Z,0.93
2023-03-26T22:05:04.473Z,1.05
2023-03-26T22:08:10.840Z,0.90
2023-03-26T22:11:13.607Z,1.00
2023-03-26T22:14:15.966Z,1.10
2023-03-26T22:17:19.136Z,0.95
2023-03-26T22:20:27.949Z,0.80
2023-03-26T22:23:38.241Z,0.85
2023-03-26T22:26:41.482Z,1.60
2023-03-26T22:29:44.079Z,0.95
2023-03-26T22:32:46.978Z,0.93
2023-03-26T22:35:49.711Z,0.80
2023-03-26T22:38:54.073Z,1.00
2023-03-26T22:41:57.558Z,0.90
2023-03-26T22:44:59.849Z,1.00
2023-03-26T22:48:04.604Z,1.23
2023-03-26T22:51:09.203Z,1.08
2023-03-26T22:54:11.832Z,1.00
2023-03-26T22:57:14.322Z,1.20
2023-03-26T23:00:19.472Z,1.33
2023-03-26T23:03:35.314Z,1.20
2023-03-26T23:06:38.212Z,1.37
2023-03-26T23:09:40.610Z,1.35
2023-03-26T23:12:43.285Z,1.60
2023-03-26T23:15:48.608Z,1.65
2023-03-26T23:18:51.302Z,1.62
2023-03-26T23:21:53.670Z,1.40
2023-03-26T23:24:56.308Z,0.90
2023-03-26T23:27:58.646Z,1.27
2023-03-26T23:31:04.408Z,1.17
2023-03-26T23:34:06.785Z,0.82
2023-03-26T23:37:11.168Z,2.20
2023-03-26T23:40:13.880Z,1.05
2023-03-26T23:43:17.201Z,1.00
2023-03-26T23:46:23.807Z,0.90
2023-03-26T23:49:27.059Z,1.20
2023-03-26T23:52:30.550Z,1.20
2023-03-26T23:55:36.516Z,1.12
2023-03-26T23:58:40.242Z,1.40
